createdAt,value
2022-10-31T03:56:28.977Z,101446.28
2022-10-31T03:59:23.336Z,101490.75
2022-10-31T04:02:17.263Z,101475.84
2022-10-31T04:05:07.082Z,101472.41
2022-10-31T04:07:59.839Z,101468.91
2022-10-31T04:10:49.294Z,101469.78
2022-10-31T04:13:42.149Z,101475.88
2022-10-31T04:16:35.734Z,101471.53
2022-10-31T04:19:22.514Z,101466.31
2022-10-31T04:22:10.306Z,101464.56
2022-10-31T04:25:00.957Z,101395.75
2022-10-31T04:27:47.691Z,101444.53
2022-10-31T04:30:35.006Z,101478.53
2022-10-31T04:33:21.786Z,101481.16
2022-10-31T04:36:08.564Z,101475.94
2022-10-31T04:38:56.233Z,101484.69
2022-10-31T04:41:55.942Z,101479.44
2022-10-31T04:44:44.172Z,101495.19
2022-10-31T04:47:30.983Z,101442.88
2022-10-31T04:50:17.988Z,101482.97
2022-10-31T04:53:06.987Z,101493.44
2022-10-31T04:56:00.919Z,101492.59
2022-10-31T04:58:55.835Z,101505.69
2022-10-31T05:01:44.308Z,101506.56
2022-10-31T05:04:31.894Z,101508.31
2022-10-31T05:07:18.725Z,101503.06
2022-10-31T05:10:05.498Z,101502.19
2022-10-31T05:12:53.832Z,101505.69
2022-10-31T05:16:00.855Z,101498.69
2022-10-31T05:18:50.135Z,101462.97
2022-10-31T05:21:48.907Z,101494.38
2022-10-31T05:24:35.724Z,101476.94
2022-10-31T05:27:22.476Z,101487.41
2022-10-31T05:29:49.844Z,101486.50
2022-10-31T05:32:36.660Z,101481.28
2022-10-31T05:35:44.827Z,101470.81
2022-10-31T05:38:49.955Z,101478.66
2022-10-31T05:41:44.098Z,101471.69
2022-10-31T05:44:39.178Z,101466.47
2022-10-31T05:47:42.642Z,101476.94
2022-10-31T05:50:49.772Z,101473.44
2022-10-31T05:53:37.014Z,101467.34
2022-10-31T05:56:23.954Z,101458.63
2022-10-31T05:59:10.722Z,101453.41
2022-10-31T06:01:58.987Z,101455.13
2022-10-31T06:05:04.681Z,101449.91
2022-10-31T06:07:55.441Z,101324.44
2022-10-31T06:10:43.891Z,101429.00
2022-10-31T06:13:32.214Z,101445.53
2022-10-31T06:16:24.703Z,101444.69
2022-10-31T06:19:12.576Z,101434.22
2022-10-31T06:21:59.278Z,101435.94
2022-10-31T06:24:45.992Z,101428.97
2022-10-31T06:27:50.490Z,101431.59
2022-10-31T06:30:40.426Z,101327.94
2022-10-31T06:33:27.211Z,101381.91
2022-10-31T06:36:16.908Z,101431.63
2022-10-31T06:39:03.756Z,101431.59
2022-10-31T06:41:50.914Z,101412.44
2022-10-31T06:44:40.494Z,101421.13
2022-10-31T06:48:10.958Z,101422.00
2022-10-31T06:50:59.620Z,101422.00
2022-10-31T06:53:47.798Z,101425.50
2022-10-31T06:56:36.782Z,101423.75
2022-10-31T06:59:24.580Z,101427.22
2022-10-31T07:02:31.415Z,101423.78
2022-10-31T07:05:18.266Z,101421.16
2022-10-31T07:08:05.054Z,101409.81
2022-10-31T07:10:53.969Z,101411.53
2022-10-31T07:13:42.254Z,101415.03
2022-10-31T07:16:29.577Z,101411.53
2022-10-31T07:18:56.387Z,101409.78
2022-10-31T07:21:43.096Z,101414.13
2022-10-31T07:24:31.420Z,101394.09
2022-10-31T07:27:38.795Z,101320.94
2022-10-31T07:30:31.746Z,101409.78
2022-10-31T07:33:18.703Z,101399.31
2022-10-31T07:36:24.303Z,101419.38
2022-10-31T07:39:13.018Z,101421.16
2022-10-31T07:41:59.855Z,101403.69
2022-10-31T07:44:46.777Z,101390.56
2022-10-31T07:48:13.383Z,101397.56
2022-10-31T07:51:18.729Z,101385.31
2022-10-31T07:54:24.081Z,101391.44
2022-10-31T07:57:10.775Z,101378.34
2022-10-31T07:59:58.731Z,101378.34
2022-10-31T08:02:46.298Z,101371.34
2022-10-31T08:05:54.755Z,101366.97
2022-10-31T08:08:59.927Z,101371.31
2022-10-31T08:11:47.499Z,101361.72
2022-10-31T08:14:34.210Z,101353.84
2022-10-31T08:17:21.654Z,101352.94
2022-10-31T08:20:15.142Z,101305.03
2022-10-31T08:23:17.036Z,101354.63
2022-10-31T08:26:04.792Z,101352.88
2022-10-31T08:28:51.513Z,101353.72
2022-10-31T08:31:42.987Z,101341.50
2022-10-31T08:34:48.434Z,101339.69
2022-10-31T08:37:33.899Z,101346.66
2022-10-31T08:40:00.715Z,101338.78
2022-10-31T08:42:27.469Z,101338.75
2022-10-31T08:44:54.238Z,101335.22
2022-10-31T08:47:22.536Z,101343.03
2022-10-31T08:49:49.283Z,101308.16
2022-10-31T08:53:03.009Z,101300.25
2022-10-31T08:55:42.991Z,101324.56
2022-10-31T08:58:44.750Z,101320.16
2022-10-31T09:01:31.934Z,101312.28
2022-10-31T09:04:18.845Z,101319.22
2022-10-31T09:07:21.666Z,101320.88
2022-10-31T09:10:08.829Z,101316.53
2022-10-31T09:12:57.623Z,101323.41
2022-10-31T09:15:50.939Z,101315.47
2022-10-31T09:18:44.579Z,101311.03
2022-10-31T09:21:31.310Z,101306.63
2022-10-31T09:24:19.162Z,101308.28
2022-10-31T09:27:05.935Z,101299.44
2022-10-31T09:29:56.079Z,101294.13
2022-10-31T09:32:42.866Z,101290.59
2022-10-31T09:35:30.627Z,101282.66
2022-10-31T09:38:19.858Z,101291.34
2022-10-31T09:41:27.286Z,101269.44
2022-10-31T09:44:43.183Z,101275.47
2022-10-31T09:48:05.915Z,101268.34
2022-10-31T09:50:41.418Z,101253.44
2022-10-31T09:54:12.027Z,101269.06
2022-10-31T09:56:59.639Z,101247.25
2022-10-31T09:59:36.310Z,101253.19
2022-10-31T10:02:21.578Z,101255.75
2022-10-31T10:05:06.104Z,101259.22
2022-10-31T10:07:51.002Z,101158.25
2022-10-31T10:10:51.254Z,101251.16
2022-10-31T10:14:20.599Z,101243.19
2022-10-31T10:17:26.085Z,101236.13
2022-10-31T10:21:06.469Z,101211.78
2022-10-31T10:24:43.551Z,101233.31
2022-10-31T10:28:08.975Z,101226.22
2022-10-31T10:31:18.181Z,101222.63
2022-10-31T10:34:16.810Z,101219.91
2022-10-31T10:37:15.787Z,101219.00
2022-10-31T10:40:08.531Z,101219.78
2022-10-31T10:42:54.957Z,101222.34
2022-10-31T10:45:40.282Z,101217.91
2022-10-31T10:48:44.542Z,101218.69
2022-10-31T10:52:34.964Z,101201.03
2022-10-31T10:55:42.840Z,101194.81
2022-10-31T10:58:31.423Z,101198.25
2022-10-31T11:01:18.240Z,101192.91
2022-10-31T11:04:05.020Z,101179.69
2022-10-31T11:06:51.727Z,101179.59
2022-10-31T11:09:38.530Z,101192.63
2022-10-31T11:12:51.809Z,101087.63
2022-10-31T11:15:45.199Z,101140.28
2022-10-31T11:18:42.522Z,101116.88
2022-10-31T11:21:41.934Z,101181.81
2022-10-31T11:24:31.456Z,101184.34
2022-10-31T11:27:37.222Z,101176.38
2022-10-31T11:30:27.716Z,101095.59
2022-10-31T11:33:14.739Z,101165.75
2022-10-31T11:36:01.538Z,101169.94
2022-10-31T11:39:00.782Z,101093.53
2022-10-31T11:42:04.891Z,101141.06
2022-10-31T11:44:54.950Z,101142.50
2022-10-31T11:47:55.249Z,101117.34
2022-10-31T11:50:53.954Z,101143.22
2022-10-31T11:53:59.851Z,101134.44
2022-10-31T11:57:00.262Z,101120.53
2022-10-31T11:59:49.993Z,101135.94
2022-10-31T12:02:40.955Z,101143.72
2022-10-31T12:05:31.603Z,101136.59
2022-10-31T12:08:18.370Z,101131.25
2022-10-31T12:11:08.102Z,101121.47
2022-10-31T12:14:03.989Z,101097.13
2022-10-31T12:17:15.476Z,101117.69
2022-10-31T12:20:23.926Z,101115.78
2022-10-31T12:23:24.553Z,101109.44
2022-10-31T12:26:19.972Z,101095.19
2022-10-31T12:29:41.064Z,101055.25
2022-10-31T12:32:58.964Z,101090.31
2022-10-31T12:35:57.962Z,101084.84
2022-10-31T12:38:56.576Z,101103.97
2022-10-31T12:42:06.869Z,101091.44
2022-10-31T12:44:53.551Z,101094.66
2022-10-31T12:48:25.117Z,101088.13
2022-10-31T12:51:23.974Z,101077.19
2022-10-31T12:54:19.282Z,101079.56
2022-10-31T12:57:11.914Z,101078.44
2022-10-31T13:00:04.577Z,101066.78
2022-10-31T13:03:16.513Z,101069.09
2022-10-31T13:06:09.087Z,101073.19
2022-10-31T13:09:06.802Z,101064.16
2022-10-31T13:12:02.926Z,101065.69
2022-10-31T13:15:07.725Z,101050.38
2022-10-31T13:18:08.867Z,101051.84
2022-10-31T13:21:08.725Z,101059.53
2022-10-31T13:23:58.235Z,101054.94
2022-10-31T13:26:58.231Z,101061.84
2022-10-31T13:29:56.990Z,101051.06
2022-10-31T13:32:44.052Z,100950.59
2022-10-31T13:36:02.830Z,101053.41
2022-10-31T13:39:11.427Z,101047.00
2022-10-31T13:42:09.924Z,101043.22
2022-10-31T13:45:00.706Z,101039.63
2022-10-31T13:47:49.502Z,101047.22
2022-10-31T13:50:38.950Z,101052.31
2022-10-31T13:53:41.319Z,101052.03
2022-10-31T13:56:42.196Z,101041.22
2022-10-31T13:59:31.847Z,101043.72
2022-10-31T14:02:21.544Z,101032.94
2022-10-31T14:05:33.373Z,101013.81
2022-10-31T14:08:23.575Z,101031.88
2022-10-31T14:11:16.270Z,101038.91
2022-10-31T14:14:06.151Z,101018.06
2022-10-31T14:16:55.641Z,101041.44
2022-10-31T14:19:43.678Z,101044.84
2022-10-31T14:22:43.087Z,101037.75
2022-10-31T14:25:56.638Z,101033.31
2022-10-31T14:28:54.211Z,101028.03
2022-10-31T14:31:54.523Z,101037.69
2022-10-31T14:34:44.263Z,101042.19
2022-10-31T14:37:58.501Z,101036.94
2022-10-31T14:41:02.842Z,101035.22
2022-10-31T14:44:01.351Z,101037.00
2022-10-31T14:46:53.708Z,101022.03
2022-10-31T14:50:11.603Z,101032.63
2022-10-31T14:53:00.157Z,101019.38
2022-10-31T14:55:47.469Z,101030.03
2022-10-31T14:58:39.428Z,101017.72
2022-10-31T15:01:27.706Z,101013.53
2022-10-31T15:04:24.670Z,100951.25
2022-10-31T15:07:39.729Z,101018.66
2022-10-31T15:10:42.501Z,101017.81
2022-10-31T15:13:31.314Z,101031.00
2022-10-31T15:16:18.302Z,101028.53
2022-10-31T15:19:12.714Z,101035.50
2022-10-31T15:22:05.168Z,100962.13
2022-10-31T15:24:56.192Z,101032.84
2022-10-31T15:27:44.665Z,101034.59
2022-10-31T15:30:57.908Z,101013.03
2022-10-31T15:33:51.867Z,100966.31
2022-10-31T15:36:44.741Z,101031.94
2022-10-31T15:39:32.714Z,101025.72
2022-10-31T15:42:20.461Z,101025.72
2022-10-31T15:45:12.911Z,101031.88
2022-10-31T15:48:06.065Z,101030.13
2022-10-31T15:51:09.581Z,101037.19
2022-10-31T15:53:58.314Z,101019.72
2022-10-31T15:56:48.890Z,101029.13
2022-10-31T15:59:44.606Z,101034.41
2022-10-31T16:02:33.492Z,100974.78
2022-10-31T16:05:22.258Z,101032.56
2022-10-31T16:08:13.105Z,101025.81
2022-10-31T16:10:59.879Z,101045.75
2022-10-31T16:13:56.074Z,101045.75
2022-10-31T16:16:43.627Z,101038.72
2022-10-31T16:19:53.211Z,101003.53
2022-10-31T16:22:44.263Z,101050.09
2022-10-31T16:25:33.766Z,101046.63
2022-10-31T16:28:48.770Z,101050.97
2022-10-31T16:31:35.617Z,100959.38
2022-10-31T16:34:43.474Z,101047.38
2022-10-31T16:37:30.162Z,101056.09
2022-10-31T16:40:16.865Z,101059.63
2022-10-31T16:43:05.046Z,101057.81
2022-10-31T16:45:53.846Z,101064.88
2022-10-31T16:48:42.143Z,101060.44
2022-10-31T16:51:29.095Z,100996.28
2022-10-31T16:54:15.819Z,101051.56
2022-10-31T16:56:45.792Z,101059.47
2022-10-31T16:59:16.053Z,101061.19
2022-10-31T17:01:46.353Z,101075.25
2022-10-31T17:04:14.757Z,101068.16
2022-10-31T17:06:42.465Z,101084.06
2022-10-31T17:09:09.814Z,101026.84
2022-10-31T17:11:37.477Z,101078.69
2022-10-31T17:14:25.280Z,101068.94
2022-10-31T17:16:52.120Z,101067.19
2022-10-31T17:19:19.046Z,101070.69
2022-10-31T17:22:05.849Z,101070.66
2022-10-31T17:24:52.551Z,101075.06
2022-10-31T17:27:41.241Z,101071.53
2022-10-31T17:30:33.335Z,101080.38
2022-10-31T17:33:20.394Z,101089.19
2022-10-31T17:36:07.124Z,101090.25
2022-10-31T17:38:53.906Z,101093.72
2022-10-31T17:41:40.615Z,101086.66
2022-10-31T17:44:30.746Z,101076.41
2022-10-31T17:47:17.477Z,101097.31
2022-10-31T17:50:04.185Z,101100.78
2022-10-31T17:52:50.932Z,101100.84
2022-10-31T17:55:37.920Z,101099.19
2022-10-31T17:58:25.472Z,101037.81
2022-10-31T18:01:12.300Z,101101.94
2022-10-31T18:03:59.791Z,101116.16
2022-10-31T18:06:46.658Z,101012.50
2022-10-31T18:09:33.380Z,101118.97
2022-10-31T18:12:20.242Z,101131.34
2022-10-31T18:15:06.964Z,101132.34
2022-10-31T18:17:53.709Z,101127.94
2022-10-31T18:20:40.414Z,101134.16
2022-10-31T18:23:27.346Z,101129.91
2022-10-31T18:26:14.772Z,101085.00
2022-10-31T18:29:01.515Z,101134.47
2022-10-31T18:31:48.219Z,101138.03
2022-10-31T18:34:35.608Z,101142.47
2022-10-31T18:37:22.395Z,101136.38
2022-10-31T18:40:09.116Z,101141.72
2022-10-31T18:42:55.961Z,101154.06
2022-10-31T18:45:47.933Z,101152.41
2022-10-31T18:48:36.970Z,101153.38
2022-10-31T18:51:25.367Z,101160.50
2022-10-31T18:54:13.709Z,101158.84
2022-10-31T18:57:00.434Z,101159.84
2022-10-31T18:59:47.153Z,101169.69
2022-10-31T19:02:36.969Z,101182.13
2022-10-31T19:05:24.010Z,101170.78
2022-10-31T19:08:10.738Z,101159.47
2022-10-31T19:10:58.967Z,101089.63
2022-10-31T19:13:45.691Z,101158.81
2022-10-31T19:16:35.765Z,101164.22
2022-10-31T19:19:22.542Z,101161.63
2022-10-31T19:22:09.243Z,101152.19
2022-10-31T19:24:56.031Z,101171.47
2022-10-31T19:27:42.716Z,101176.88
2022-10-31T19:30:30.547Z,101178.69
2022-10-31T19:33:17.242Z,101182.38
2022-10-31T19:36:03.991Z,101133.94
2022-10-31T19:38:51.129Z,101184.44
2022-10-31T19:41:40.407Z,101183.63
2022-10-31T19:44:27.105Z,101181.13
2022-10-31T19:47:13.812Z,101183.09
2022-10-31T19:50:00.502Z,101138.16
2022-10-31T19:52:47.224Z,101196.50
2022-10-31T19:55:33.983Z,101188.66
2022-10-31T19:58:20.680Z,101183.44
2022-10-31T20:01:07.482Z,101179.53
2022-10-31T20:03:54.292Z,101196.03
2022-10-31T20:06:48.620Z,101200.56
2022-10-31T20:09:35.429Z,101185.88
2022-10-31T20:12:22.130Z,101203.44
2022-10-31T20:15:09.561Z,101194.63
2022-10-31T20:17:56.306Z,101197.38
2022-10-31T20:20:43.231Z,101193.03
2022-10-31T20:23:30.459Z,101168.91
2022-10-31T20:26:17.260Z,101193.19
2022-10-31T20:29:04.374Z,101192.34
2022-10-31T20:31:53.806Z,101192.34
2022-10-31T20:34:40.536Z,101200.31
2022-10-31T20:37:27.332Z,101204.75
2022-10-31T20:40:14.059Z,101209.25
2022-10-31T20:43:00.842Z,101211.88
2022-10-31T20:45:48.250Z,101214.56
2022-10-31T20:48:34.942Z,101212.78
2022-10-31T20:51:26.410Z,101209.28
2022-10-31T20:54:14.642Z,101211.97
2022-10-31T20:57:02.589Z,101204.94
2022-10-31T20:59:49.362Z,101211.16
2022-10-31T21:02:36.248Z,101210.22
2022-10-31T21:05:23.023Z,101205.78
2022-10-31T21:08:09.752Z,101217.22
2022-10-31T21:10:59.166Z,101214.63
2022-10-31T21:13:46.614Z,101219.94
2022-10-31T21:16:39.686Z,101212.19
2022-10-31T21:19:26.415Z,101232.28
2022-10-31T21:22:13.126Z,101258.69
2022-10-31T21:24:59.830Z,101246.44
2022-10-31T21:27:46.556Z,101220.44
2022-10-31T21:30:33.597Z,101242.88
2022-10-31T21:33:20.358Z,101234.16
2022-10-31T21:36:11.656Z,101237.59
2022-10-31T21:38:59.147Z,101246.41
2022-10-31T21:41:46.799Z,101245.47
2022-10-31T21:44:33.580Z,101216.75
2022-10-31T21:47:20.309Z,101235.75
2022-10-31T21:50:07.008Z,101229.50
2022-10-31T21:52:53.786Z,101226.81
2022-10-31T21:55:40.478Z,101224.19
2022-10-31T21:58:27.168Z,101212.75
2022-10-31T22:01:13.926Z,101210.22
2022-10-31T22:04:01.722Z,101221.50
2022-10-31T22:06:52.017Z,101230.28
2022-10-31T22:09:38.886Z,101244.34
2022-10-31T22:12:25.774Z,101238.13
2022-10-31T22:14:56.422Z,101242.53
2022-10-31T22:17:43.211Z,101218.19
2022-10-31T22:20:30.195Z,101241.63
2022-10-31T22:23:16.963Z,101235.44
2022-10-31T22:26:03.662Z,101238.97
2022-10-31T22:28:52.417Z,101245.09
2022-10-31T22:31:41.017Z,101242.41
2022-10-31T22:34:28.458Z,101244.16
2022-10-31T22:37:19.628Z,101174.06
2022-10-31T22:40:06.619Z,101246.78
2022-10-31T22:42:53.360Z,101259.06
2022-10-31T22:45:40.037Z,101252.84
2022-10-31T22:48:29.446Z,101247.56
2022-10-31T22:51:16.329Z,101137.66
2022-10-31T22:54:03.711Z,101242.31
2022-10-31T22:56:53.354Z,101238.81
2022-10-31T22:59:40.047Z,101236.31
2022-10-31T23:02:26.828Z,101244.13
2022-10-31T23:05:13.675Z,101241.41
2022-10-31T23:08:00.772Z,101235.28
2022-10-31T23:10:48.040Z,101240.47
2022-10-31T23:13:37.267Z,101237.84
2022-10-31T23:16:28.890Z,101237.84
2022-10-31T23:19:15.605Z,101226.34
2022-10-31T23:22:04.155Z,101231.63
2022-10-31T23:25:06.950Z,101234.31
2022-10-31T23:27:54.007Z,101237.88
2022-10-31T23:30:40.699Z,101246.69
2022-10-31T23:33:31.344Z,101166.13
2022-10-31T23:36:18.315Z,101255.53
2022-10-31T23:39:04.996Z,101255.59
2022-10-31T23:41:51.702Z,101257.44
2022-10-31T23:44:38.487Z,101261.84
2022-10-31T23:47:25.603Z,101261.88
2022-10-31T23:50:12.324Z,101261.91
2022-10-31T23:52:59.089Z,101266.31
2022-10-31T23:55:45.817Z,101276.19
2022-10-31T23:58:32.561Z,101278.78
